This is the latest recevied weather packets stored in our database for station/object WC4PEM-14. If no packets are shown the sender has not sent any weather packets the latest 1 day(s).
| Time | Temp. | Humidity | Pressure | Rain* | Wind** | Luminosity | Snow |
|---|---|---|---|---|---|---|---|
| 1778074983 | 26.11° C | 75% | 1016.8 hPa | 0 mm | - | - | - |
| 1778074543 | 25.56° C | 77% | 1016.8 hPa | 0 mm | - | - | - |
| 1778073344 | 24.44° C | 81% | 1016.5 hPa | 0 mm | - | - | - |
| 1778071762 | 22.78° C | 84% | 1016.3 hPa | 0 mm | - | - | - |
| 1778068427 | 20° C | 88% | 1015.9 hPa | 0 mm | - | - | - |
| 1778068261 | 20° C | 88% | 1015.9 hPa | 0 mm | - | - | - |
| 1778064304 | 19.44° C | 86% | 1015.3 hPa | 0 mm | - | - | - |
| 1778062558 | 19.44° C | 86% | 1015.3 hPa | 0 mm | - | - | - |
| 1778062554 | 21.67° C | 74% | 1016.2 hPa | 0 mm | - | - | - |
| 1778061216 | 19.44° C | 85% | 1015.4 hPa | 0 mm | - | - | - |
| 1778060284 | 20° C | 84% | 1015.2 hPa | 0 mm | - | - | - |
| 1778057884 | 20° C | 83% | 1015.1 hPa | 0 mm | - | - | - |
| 1778057584 | 20° C | 83% | 1014.8 hPa | 0 mm | - | - | - |
| 1778057284 | 20° C | 83% | 1014.7 hPa | 0 mm | - | - | - |
| 1778056984 | 20° C | 83% | 1014.8 hPa | 0 mm | - | - | - |
| 1778056684 | 20° C | 82% | 1014.8 hPa | 0 mm | - | - | - |
| 1778056384 | 20° C | 82% | 1014.9 hPa | 0 mm | - | - | - |
| 1778056084 | 20.56° C | 82% | 1015.1 hPa | 0 mm | - | - | - |
| 1778055890 | 20° C | 82% | 1015 hPa | 0 mm | - | - | - |
| 1778055784 | 20° C | 82% | 1015.1 hPa | 0 mm | - | - | - |
| 1778055484 | 20° C | 82% | 1015 hPa | 0 mm | - | - | - |
| 1778055184 | 20.56° C | 81% | 1015.1 hPa | 0 mm | - | - | - |
| 1778054884 | 20.56° C | 81% | 1015.2 hPa | 0 mm | - | - | - |
| 1778054599 | 20.56° C | 80% | 1015.2 hPa | 0 mm | - | - | - |
| 1778054584 | 20.56° C | 80% | 1015.2 hPa | 0 mm | - | - | - |
* Rain latest hour (hover to see other rain measurements)
** Current wind speed in m/s (hover to see current wind gust speed)